Time;durP1;ratioP1;P1;durP2;ratioP2;P2;SDS_P1;SDS_P2;PMS_P1;PMS_P2;Temp;Humidity;BMP_temperature;BMP_pressure;BME280_temperature;BME280_humidity;BME280_pressure;Samples;Min_cycle;Max_cycle;Signal;HPM_P1;HPM_P2
2024/03/04 00:00:50;;;;;;;97.25;40.80;;;8.40;100.00;;;;;;5022420;28;20076;-74
2024/03/04 00:03:17;;;;;;;103.15;39.25;;;8.30;100.00;;;;;;5016751;28;20125;-73
2024/03/04 00:05:44;;;;;;;90.47;38.65;;;8.30;100.00;;;;;;5016591;28;20041;-74
2024/03/04 00:08:11;;;;;;;101.45;40.78;;;8.30;100.00;;;;;;5025132;28;20095;-74
2024/03/04 00:10:38;;;;;;;104.88;39.70;;;8.30;100.00;;;;;;5017337;28;20058;-74
2024/03/04 00:13:06;;;;;;;91.57;39.50;;;8.30;100.00;;;;;;5017050;28;20557;-74
2024/03/04 00:15:33;;;;;;;95.20;38.25;;;8.30;100.00;;;;;;5022048;28;20142;-74
2024/03/04 00:18:00;;;;;;;96.15;39.45;;;8.20;100.00;;;;;;5015154;28;20054;-74
2024/03/04 00:20:27;;;;;;;105.30;40.08;;;8.20;100.00;;;;;;5014757;28;20487;-74
2024/03/04 00:22:54;;;;;;;100.15;39.60;;;8.20;100.00;;;;;;5021168;28;20060;-74
2024/03/04 00:25:20;;;;;;;99.95;40.50;;;8.20;100.00;;;;;;5013626;28;20552;-74
2024/03/04 00:27:56;;;;;;;95.07;39.22;;;8.20;100.00;;;;;;5012633;28;20073;-74
2024/03/04 00:30:26;;;;;;;104.25;38.88;;;8.10;100.00;;;;;;5018303;28;20063;-74
2024/03/04 00:32:53;;;;;;;92.72;38.35;;;8.10;100.00;;;;;;5014872;28;20054;-74
2024/03/04 00:35:20;;;;;;;93.82;36.75;;;8.10;100.00;;;;;;5015160;28;20145;-74
2024/03/04 00:37:47;;;;;;;103.00;38.47;;;8.10;100.00;;;;;;5013086;28;20103;-74
2024/03/04 00:40:14;;;;;;;96.15;41.38;;;8.10;100.00;;;;;;5015968;28;20437;-74
2024/03/04 00:42:41;;;;;;;100.57;39.55;;;8.10;100.00;;;;;;5018584;28;20068;-74
2024/03/04 00:45:09;;;;;;;90.65;37.83;;;8.00;100.00;;;;;;5011020;28;20045;-74
2024/03/04 00:47:37;;;;;;;102.78;39.72;;;8.00;100.00;;;;;;5012322;28;20063;-74
2024/03/04 00:50:04;;;;;;;101.78;39.92;;;8.00;100.00;;;;;;5014635;28;20053;-74
2024/03/04 00:52:31;;;;;;;97.18;38.70;;;8.00;100.00;;;;;;5015812;28;20468;-74
2024/03/04 00:54:58;;;;;;;94.35;40.58;;;8.00;100.00;;;;;;5011382;28;20049;-74
2024/03/04 00:57:24;;;;;;;92.90;38.60;;;8.00;100.00;;;;;;5013940;28;20053;-74
2024/03/04 00:59:51;;;;;;;96.70;38.05;;;8.00;100.00;;;;;;5017754;28;20053;-74
2024/03/04 01:02:18;;;;;;;93.32;38.53;;;8.00;100.00;;;;;;5011953;28;20052;-74
2024/03/04 01:04:45;;;;;;;94.20;37.78;;;8.00;100.00;;;;;;5011619;28;20049;-74
2024/03/04 01:07:14;;;;;;;90.97;38.38;;;8.00;100.00;;;;;;5012963;28;20053;-74
2024/03/04 01:09:41;;;;;;;97.88;40.10;;;8.00;100.00;;;;;;5014333;28;20057;-74
2024/03/04 01:12:08;;;;;;;92.60;40.13;;;8.00;100.00;;;;;;5016776;28;20054;-74
2024/03/04 01:14:37;;;;;;;100.20;38.83;;;8.00;100.00;;;;;;5019014;28;20057;-74
2024/03/04 01:17:12;;;;;;;94.15;38.42;;;8.00;100.00;;;;;;5016753;28;20050;-74
2024/03/04 01:19:45;;;;;;;104.85;38.40;;;8.00;100.00;;;;;;5014113;28;20050;-74
2024/03/04 01:22:17;;;;;;;86.32;35.80;;;8.00;100.00;;;;;;5019668;28;20045;-74
2024/03/04 01:24:45;;;;;;;98.43;38.13;;;8.00;100.00;;;;;;5011204;28;20069;-74
2024/03/04 01:27:12;;;;;;;100.18;38.42;;;8.00;100.00;;;;;;5015504;28;20140;-74
2024/03/04 01:29:42;;;;;;;90.40;39.42;;;8.00;100.00;;;;;;5011719;28;20138;-74
2024/03/04 01:32:09;;;;;;;91.40;39.10;;;8.00;100.00;;;;;;5018995;28;20563;-74
2024/03/04 01:34:39;;;;;;;92.95;39.00;;;8.10;100.00;;;;;;5011853;28;20054;-74
2024/03/04 01:37:06;;;;;;;95.40;37.92;;;8.10;100.00;;;;;;5027263;28;20045;-74
2024/03/04 01:39:34;;;;;;;97.47;37.70;;;8.10;100.00;;;;;;5011180;28;20072;-74
2024/03/04 01:42:01;;;;;;;96.47;39.00;;;8.10;100.00;;;;;;5010542;28;20600;-74
2024/03/04 01:44:33;;;;;;;90.78;37.92;;;8.10;100.00;;;;;;5012917;28;20168;-74
2024/03/04 01:47:14;;;;;;;93.43;37.75;;;8.10;100.00;;;;;;5018590;28;20207;-74
2024/03/04 01:49:42;;;;;;;99.82;39.17;;;8.10;100.00;;;;;;5019223;28;20064;-74
2024/03/04 01:52:09;;;;;;;87.60;37.70;;;8.00;100.00;;;;;;5014462;28;20053;-74
2024/03/04 01:54:38;;;;;;;89.22;38.08;;;8.00;100.00;;;;;;5018622;28;20053;-74
2024/03/04 01:57:06;;;;;;;89.00;37.47;;;8.00;100.00;;;;;;5022281;28;20053;-74
2024/03/04 01:59:36;;;;;;;96.57;36.00;;;7.90;100.00;;;;;;5016531;28;20077;-74
2024/03/04 02:02:03;;;;;;;85.75;37.17;;;7.90;100.00;;;;;;5021848;28;20776;-74
2024/03/04 02:04:30;;;;;;;85.22;37.22;;;7.80;100.00;;;;;;5018577;28;20041;-74
2024/03/04 02:06:59;;;;;;;89.82;35.83;;;7.80;100.00;;;;;;5017677;28;20056;-74
2024/03/04 02:09:27;;;;;;;88.75;37.13;;;7.70;100.00;;;;;;5011730;28;21367;-74
2024/03/04 02:11:54;;;;;;;86.38;34.08;;;7.60;100.00;;;;;;5016029;28;20411;-74
2024/03/04 02:14:23;;;;;;;88.00;36.67;;;7.50;100.00;;;;;;5038016;28;20049;-74
2024/03/04 02:16:51;;;;;;;83.00;36.80;;;7.40;100.00;;;;;;5018840;28;20068;-73
2024/03/04 02:19:20;;;;;;;93.40;36.80;;;7.40;100.00;;;;;;5017609;28;20045;-73
2024/03/04 02:22:02;;;;;;;94.20;35.95;;;7.30;100.00;;;;;;5011745;28;20459;-73
2024/03/04 02:24:29;;;;;;;90.65;36.67;;;7.30;100.00;;;;;;5008292;28;20108;-73
2024/03/04 02:26:55;;;;;;;93.68;38.53;;;7.20;100.00;;;;;;5019486;28;20135;-73
2024/03/04 02:29:22;;;;;;;93.50;37.55;;;7.20;100.00;;;;;;5024739;28;20158;-73
2024/03/04 02:31:49;;;;;;;92.90;36.15;;;7.20;100.00;;;;;;5026414;28;20383;-73
2024/03/04 02:34:16;;;;;;;87.90;38.10;;;7.20;100.00;;;;;;5020987;28;20053;-73
2024/03/04 02:36:43;;;;;;;87.28;37.28;;;7.20;100.00;;;;;;5030798;28;20049;-74
2024/03/04 02:39:12;;;;;;;93.57;36.90;;;7.20;100.00;;;;;;5019590;28;20083;-74
2024/03/04 02:41:44;;;;;;;97.47;37.53;;;7.30;100.00;;;;;;5032380;28;20819;-73
2024/03/04 02:44:13;;;;;;;93.50;37.10;;;7.30;100.00;;;;;;5022465;28;20064;-74
2024/03/04 02:46:41;;;;;;;90.05;36.72;;;7.30;100.00;;;;;;5017287;28;20092;-74
2024/03/04 02:49:09;;;;;;;94.47;38.70;;;7.40;100.00;;;;;;5017257;28;20049;-73
2024/03/04 02:51:36;;;;;;;93.60;38.10;;;7.40;100.00;;;;;;5018085;28;20080;-73
2024/03/04 02:54:03;;;;;;;97.30;38.90;;;7.40;100.00;;;;;;5035414;28;20561;-73
2024/03/04 02:56:30;;;;;;;93.68;41.08;;;7.40;100.00;;;;;;5015476;28;20107;-73
2024/03/04 02:58:57;;;;;;;93.13;38.35;;;7.40;100.00;;;;;;5015979;28;20208;-74
2024/03/04 03:01:26;;;;;;;91.60;38.90;;;7.30;100.00;;;;;;5016683;28;20040;-74
2024/03/04 03:03:53;;;;;;;86.88;37.33;;;7.30;100.00;;;;;;5028804;28;20055;-74
2024/03/04 03:06:20;;;;;;;99.68;39.42;;;7.20;100.00;;;;;;5040385;28;20041;-73
2024/03/04 03:08:49;;;;;;;95.97;39.75;;;7.10;100.00;;;;;;5044552;28;20079;-73
2024/03/04 03:11:16;;;;;;;92.20;38.47;;;7.10;100.00;;;;;;5025243;28;20049;-74
2024/03/04 03:13:46;;;;;;;95.22;38.05;;;7.00;100.00;;;;;;5019415;28;20041;-74
2024/03/04 03:16:21;;;;;;;100.53;37.67;;;7.00;100.00;;;;;;5030287;28;20045;-74
2024/03/04 03:18:50;;;;;;;96.85;38.15;;;7.00;100.00;;;;;;5019429;28;20049;-73
2024/03/04 03:21:18;;;;;;;95.93;38.95;;;6.90;100.00;;;;;;5011562;28;20054;-74
2024/03/04 03:23:50;;;;;;;96.57;36.38;;;6.90;100.00;;;;;;5026881;28;20099;-74
2024/03/04 03:26:18;;;;;;;102.38;40.80;;;6.90;100.00;;;;;;5024273;28;20506;-73
2024/03/04 03:28:45;;;;;;;97.80;36.33;;;6.80;100.00;;;;;;5033282;28;20041;-74
2024/03/04 03:31:12;;;;;;;98.45;39.60;;;6.70;100.00;;;;;;5021973;28;20057;-74
2024/03/04 03:33:39;;;;;;;96.95;39.20;;;6.70;100.00;;;;;;5040903;28;20049;-74
2024/03/04 03:36:06;;;;;;;103.82;40.55;;;6.70;100.00;;;;;;5023890;28;20072;-73
2024/03/04 03:38:33;;;;;;;107.45;39.45;;;6.70;100.00;;;;;;5018509;28;20135;-73
2024/03/04 03:41:03;;;;;;;103.28;42.88;;;6.70;100.00;;;;;;5037445;28;20052;-73
2024/03/04 03:43:30;;;;;;;102.35;41.58;;;6.60;100.00;;;;;;5021631;28;20045;-73
2024/03/04 03:45:56;;;;;;;105.20;39.90;;;6.60;100.00;;;;;;5018862;28;20153;-73
2024/03/04 03:48:25;;;;;;;101.13;40.55;;;6.60;100.00;;;;;;5030311;28;20049;-73
2024/03/04 03:50:52;;;;;;;99.78;40.80;;;6.60;100.00;;;;;;5011418;28;20049;-73
2024/03/04 03:53:19;;;;;;;108.20;43.03;;;6.60;100.00;;;;;;5031848;28;20075;-74
2024/03/04 03:55:48;;;;;;;109.20;41.35;;;6.70;100.00;;;;;;5013933;28;20049;-73
2024/03/04 03:58:18;;;;;;;101.63;43.47;;;6.60;100.00;;;;;;5027953;28;20603;-73
2024/03/04 04:00:45;;;;;;;102.22;44.03;;;6.70;100.00;;;;;;5021072;28;20724;-74
2024/03/04 04:03:12;;;;;;;106.03;41.35;;;6.70;100.00;;;;;;5015938;28;20056;-74
2024/03/04 04:05:39;;;;;;;110.78;42.67;;;6.70;100.00;;;;;;5015833;28;20089;-74
2024/03/04 04:08:07;;;;;;;108.00;43.50;;;6.70;100.00;;;;;;5018590;28;20096;-73
2024/03/04 04:10:34;;;;;;;101.03;43.35;;;6.70;100.00;;;;;;5026662;28;20049;-74
2024/03/04 04:13:04;;;;;;;102.70;42.95;;;6.70;100.00;;;;;;5023273;28;20126;-73
2024/03/04 04:15:31;;;;;;;115.05;44.40;;;6.70;100.00;;;;;;5040786;28;20061;-73
2024/03/04 04:17:58;;;;;;;97.03;41.80;;;6.70;100.00;;;;;;5025414;28;20136;-73
2024/03/04 04:20:25;;;;;;;106.88;42.83;;;6.70;100.00;;;;;;5037772;28;20050;-73
2024/03/04 04:22:52;;;;;;;109.63;43.47;;;6.70;100.00;;;;;;5037003;28;20111;-73
2024/03/04 04:25:20;;;;;;;107.72;43.92;;;6.60;100.00;;;;;;5022295;28;20517;-73
2024/03/04 04:27:47;;;;;;;106.55;43.00;;;6.60;100.00;;;;;;5030442;28;20657;-73
2024/03/04 04:30:14;;;;;;;110.93;43.72;;;6.60;100.00;;;;;;5016230;28;20127;-73
2024/03/04 04:32:42;;;;;;;102.63;42.55;;;6.60;100.00;;;;;;5019442;28;20049;-73
2024/03/04 04:35:09;;;;;;;108.18;43.38;;;6.60;100.00;;;;;;5034622;28;20100;-73
2024/03/04 04:37:36;;;;;;;115.80;43.63;;;6.60;100.00;;;;;;5022622;28;20062;-74
2024/03/04 04:40:04;;;;;;;118.88;44.97;;;6.60;100.00;;;;;;5026455;28;20050;-73
2024/03/04 04:42:31;;;;;;;109.53;44.65;;;6.60;100.00;;;;;;5020432;28;20139;-73
2024/03/04 04:44:58;;;;;;;111.88;44.50;;;6.60;100.00;;;;;;5018503;28;20054;-73
2024/03/04 04:47:26;;;;;;;112.78;46.17;;;6.60;100.00;;;;;;5020728;28;20474;-73
2024/03/04 04:49:54;;;;;;;123.90;45.75;;;6.60;100.00;;;;;;5023250;28;20140;-73
2024/03/04 04:52:21;;;;;;;103.90;41.33;;;6.60;100.00;;;;;;5020037;28;20060;-74
2024/03/04 04:54:48;;;;;;;110.47;43.72;;;6.60;100.00;;;;;;5018634;28;20057;-74
2024/03/04 04:57:18;;;;;;;115.22;44.80;;;6.60;100.00;;;;;;5016090;28;20068;-74
2024/03/04 04:59:45;;;;;;;111.22;45.40;;;6.50;100.00;;;;;;5014249;28;20041;-73
2024/03/04 05:02:13;;;;;;;108.40;44.53;;;6.50;100.00;;;;;;5033796;28;20683;-73
2024/03/04 05:04:43;;;;;;;114.88;45.90;;;6.60;100.00;;;;;;5016207;28;20043;-73
2024/03/04 05:07:23;;;;;;;101.15;43.28;;;6.60;100.00;;;;;;5025048;28;20049;-73
2024/03/04 05:09:50;;;;;;;115.03;46.20;;;6.50;100.00;;;;;;5012751;28;20041;-74
2024/03/04 05:12:17;;;;;;;117.90;44.15;;;6.50;100.00;;;;;;5013787;28;20052;-73
2024/03/04 05:14:47;;;;;;;110.20;43.72;;;6.50;100.00;;;;;;5017434;28;20069;-73
2024/03/04 05:17:14;;;;;;;115.80;46.05;;;6.50;100.00;;;;;;5039119;28;20132;-73
2024/03/04 05:19:40;;;;;;;111.22;45.70;;;6.50;100.00;;;;;;5020964;28;20793;-73
2024/03/04 05:22:09;;;;;;;114.13;45.83;;;6.50;100.00;;;;;;5017064;28;20049;-73
2024/03/04 05:24:36;;;;;;;112.40;45.50;;;6.50;100.00;;;;;;5017652;28;20053;-73
2024/03/04 05:27:03;;;;;;;124.43;48.65;;;6.50;100.00;;;;;;5022120;28;20064;-73
2024/03/04 05:29:33;;;;;;;119.32;46.65;;;6.50;100.00;;;;;;5016721;28;20107;-73
2024/03/04 05:32:00;;;;;;;115.63;48.38;;;6.60;100.00;;;;;;5036749;28;20065;-74
2024/03/04 05:34:27;;;;;;;110.65;45.45;;;6.60;100.00;;;;;;5012425;28;20490;-74
2024/03/04 05:36:55;;;;;;;120.80;46.22;;;6.60;100.00;;;;;;5038519;28;20054;-74
2024/03/04 05:39:22;;;;;;;115.18;46.20;;;6.60;100.00;;;;;;5016714;28;20056;-73
2024/03/04 05:41:50;;;;;;;108.13;46.40;;;6.60;100.00;;;;;;5035326;28;20046;-73
2024/03/04 05:44:17;;;;;;;129.85;48.10;;;6.60;100.00;;;;;;5019855;28;20523;-73
2024/03/04 05:46:44;;;;;;;115.65;46.95;;;6.60;100.00;;;;;;5019587;28;20128;-73
2024/03/04 05:49:12;;;;;;;114.18;46.45;;;6.60;100.00;;;;;;5028467;28;20045;-78
2024/03/04 05:51:42;;;;;;;103.25;45.25;;;6.50;100.00;;;;;;5021045;28;20647;-79
2024/03/04 05:54:09;;;;;;;118.47;46.15;;;6.50;100.00;;;;;;5023387;28;20130;-75
2024/03/04 05:56:43;;;;;;;118.88;47.55;;;6.50;100.00;;;;;;5018039;28;20140;-75
2024/03/04 05:59:10;;;;;;;118.55;44.95;;;6.50;100.00;;;;;;5020049;28;20049;-83
2024/03/04 06:01:38;;;;;;;110.00;45.95;;;6.40;100.00;;;;;;5040086;28;20042;-80
2024/03/04 06:04:05;;;;;;;112.43;46.70;;;6.40;100.00;;;;;;5022003;28;20049;-75
2024/03/04 06:06:33;;;;;;;124.20;48.42;;;6.40;100.00;;;;;;5026331;28;20049;-75
2024/03/04 06:09:03;;;;;;;117.63;46.80;;;6.40;100.00;;;;;;5018237;28;20061;-73
2024/03/04 06:11:30;;;;;;;126.45;47.97;;;6.40;100.00;;;;;;5024739;28;20286;-77
2024/03/04 06:13:57;;;;;;;115.15;47.47;;;6.30;100.00;;;;;;5026865;28;20049;-77
2024/03/04 06:16:24;;;;;;;120.25;48.60;;;6.30;100.00;;;;;;5020496;28;20112;-77
2024/03/04 06:18:51;;;;;;;117.30;45.95;;;6.30;100.00;;;;;;5020085;28;20045;-76
2024/03/04 06:21:18;;;;;;;115.13;46.67;;;6.30;100.00;;;;;;5016641;28;20045;-76
2024/03/04 06:23:45;;;;;;;113.80;47.50;;;6.30;100.00;;;;;;5032151;28;20065;-72
2024/03/04 06:26:12;;;;;;;108.90;47.53;;;6.30;100.00;;;;;;5014496;28;20113;-73
2024/03/04 06:28:39;;;;;;;113.20;47.10;;;6.30;100.00;;;;;;5022517;28;20120;-72
2024/03/04 06:31:06;;;;;;;124.45;47.65;;;6.20;100.00;;;;;;5014279;28;20113;-74
2024/03/04 06:33:33;;;;;;;115.88;45.13;;;6.30;100.00;;;;;;5026139;28;20057;-74
2024/03/04 06:36:19;;;;;;;110.72;45.22;;;6.20;100.00;;;;;;5023360;28;20056;-74
2024/03/04 06:38:46;;;;;;;114.70;46.53;;;6.20;100.00;;;;;;5024229;28;20519;-75
2024/03/04 06:41:13;;;;;;;113.22;46.33;;;6.30;100.00;;;;;;5015368;28;20053;-75
2024/03/04 06:43:40;;;;;;;117.72;46.42;;;6.30;100.00;;;;;;5021525;28;20038;-74
2024/03/04 06:46:07;;;;;;;126.57;49.53;;;6.30;100.00;;;;;;5017639;28;20049;-75
2024/03/04 06:48:35;;;;;;;122.05;48.85;;;6.30;100.00;;;;;;5017112;28;20073;-75
2024/03/04 06:51:02;;;;;;;127.57;48.70;;;6.30;100.00;;;;;;5017689;28;20440;-75
2024/03/04 06:53:29;;;;;;;118.38;47.58;;;6.30;100.00;;;;;;5022612;28;20053;-75
2024/03/04 06:55:56;;;;;;;115.90;47.85;;;6.30;100.00;;;;;;5026869;28;20584;-75
2024/03/04 06:58:23;;;;;;;115.00;48.50;;;6.30;100.00;;;;;;5023262;28;20053;-75
2024/03/04 07:00:53;;;;;;;120.30;47.05;;;6.30;100.00;;;;;;5018785;28;20580;-75
2024/03/04 07:03:19;;;;;;;120.40;46.95;;;6.30;100.00;;;;;;5025154;28;20057;-75
2024/03/04 07:05:46;;;;;;;124.82;48.17;;;6.40;100.00;;;;;;5019716;28;20099;-75
2024/03/04 07:08:13;;;;;;;121.80;48.25;;;6.40;100.00;;;;;;5017950;28;20049;-75
2024/03/04 07:10:40;;;;;;;120.45;48.85;;;6.40;100.00;;;;;;5029316;28;20052;-75
2024/03/04 07:13:07;;;;;;;118.45;48.17;;;6.40;100.00;;;;;;5026250;28;20050;-75
2024/03/04 07:15:34;;;;;;;126.47;46.72;;;6.50;100.00;;;;;;5021279;28;20068;-75
2024/03/04 07:18:01;;;;;;;126.47;48.03;;;6.50;100.00;;;;;;5023642;28;20054;-75
2024/03/04 07:20:27;;;;;;;126.32;50.67;;;6.60;100.00;;;;;;5022695;28;20054;-75
2024/03/04 07:22:54;;;;;;;113.05;48.55;;;6.60;100.00;;;;;;5021097;28;20497;-75
2024/03/04 07:25:21;;;;;;;124.57;49.47;;;6.70;100.00;;;;;;5018864;28;20042;-75
2024/03/04 07:27:48;;;;;;;115.38;49.88;;;6.80;100.00;;;;;;5021127;28;20052;-75
2024/03/04 07:30:15;;;;;;;123.75;47.60;;;6.80;100.00;;;;;;5015799;28;20147;-75
2024/03/04 07:32:42;;;;;;;115.13;49.45;;;6.90;100.00;;;;;;5021867;28;20573;-75
2024/03/04 07:35:09;;;;;;;122.28;48.20;;;7.00;100.00;;;;;;5015286;28;20055;-75
2024/03/04 07:37:35;;;;;;;118.13;48.22;;;7.00;100.00;;;;;;5036503;28;20516;-75
2024/03/04 07:40:03;;;;;;;125.43;49.63;;;7.10;100.00;;;;;;5022116;28;20536;-75
2024/03/04 07:42:31;;;;;;;122.97;49.38;;;7.20;100.00;;;;;;5022741;28;20134;-75
2024/03/04 07:44:57;;;;;;;131.35;51.90;;;7.30;100.00;;;;;;5036757;28;20072;-75
2024/03/04 07:47:24;;;;;;;113.97;48.92;;;7.40;100.00;;;;;;5023985;28;20124;-75
2024/03/04 07:49:51;;;;;;;127.72;49.63;;;7.50;100.00;;;;;;5020652;28;20045;-75
2024/03/04 07:52:19;;;;;;;116.15;49.65;;;7.60;100.00;;;;;;5031392;28;20096;-75
2024/03/04 07:54:46;;;;;;;120.30;47.13;;;7.80;100.00;;;;;;5018587;28;20156;-75
2024/03/04 07:57:13;;;;;;;125.13;50.22;;;7.90;100.00;;;;;;5018156;28;20073;-75
2024/03/04 07:59:49;;;;;;;119.60;49.42;;;8.00;100.00;;;;;;5018238;28;20128;-75
2024/03/04 08:02:16;;;;;;;108.65;47.55;;;8.00;100.00;;;;;;5017263;28;20054;-75
2024/03/04 08:04:44;;;;;;;116.50;47.10;;;8.00;100.00;;;;;;5024284;28;20069;-75
2024/03/04 08:07:12;;;;;;;116.30;47.63;;;8.10;100.00;;;;;;5039729;28;20818;-75
2024/03/04 08:09:42;;;;;;;108.97;46.38;;;8.10;100.00;;;;;;5022796;28;20054;-76
2024/03/04 08:12:08;;;;;;;113.65;47.00;;;8.20;100.00;;;;;;5038837;28;20464;-75
2024/03/04 08:14:40;;;;;;;111.88;47.33;;;8.30;100.00;;;;;;5026129;28;20049;-75
2024/03/04 08:17:08;;;;;;;105.55;44.42;;;8.40;100.00;;;;;;5027233;28;20054;-75
2024/03/04 08:19:35;;;;;;;109.13;45.65;;;8.60;100.00;;;;;;5013536;28;20068;-75
2024/03/04 08:22:02;;;;;;;100.85;42.40;;;8.90;100.00;;;;;;5035669;28;20119;-75
2024/03/04 08:24:29;;;;;;;100.90;44.33;;;9.30;100.00;;;;;;5015174;28;20049;-75
2024/03/04 08:26:56;;;;;;;98.55;43.35;;;9.70;100.00;;;;;;5012053;28;20050;-75
2024/03/04 08:29:23;;;;;;;96.28;43.28;;;9.80;100.00;;;;;;5021772;28;20084;-75
2024/03/04 08:31:50;;;;;;;99.68;41.80;;;9.90;100.00;;;;;;5018239;28;20041;-75
2024/03/04 08:34:19;;;;;;;88.53;42.70;;;10.10;100.00;;;;;;5016643;28;20049;-75
2024/03/04 08:36:46;;;;;;;90.53;41.08;;;10.40;100.00;;;;;;5017706;28;20076;-75
2024/03/04 08:39:13;;;;;;;91.25;39.42;;;10.40;100.00;;;;;;5019261;28;20135;-75
2024/03/04 08:41:48;;;;;;;90.63;39.28;;;10.40;100.00;;;;;;5027950;28;20042;-75
2024/03/04 08:44:15;;;;;;;100.18;40.20;;;10.30;100.00;;;;;;5019397;28;20378;-75
2024/03/04 08:46:43;;;;;;;95.22;39.15;;;10.10;100.00;;;;;;5023950;28;20103;-75
2024/03/04 08:49:10;;;;;;;91.30;39.72;;;10.10;100.00;;;;;;5021136;28;20048;-75
2024/03/04 08:51:41;;;;;;;88.25;39.50;;;10.10;100.00;;;;;;5017232;28;20738;-75
2024/03/04 08:54:08;;;;;;;90.10;38.47;;;10.00;100.00;;;;;;5014077;28;21123;-75
2024/03/04 08:56:35;;;;;;;88.43;38.92;;;10.00;100.00;;;;;;5017009;28;20107;-75
2024/03/04 08:59:02;;;;;;;88.22;39.45;;;10.00;100.00;;;;;;5038926;28;20092;-75
2024/03/04 09:01:32;;;;;;;97.40;37.80;;;10.00;100.00;;;;;;5016661;28;20053;-76
2024/03/04 09:03:59;;;;;;;84.60;38.80;;;10.20;100.00;;;;;;5018519;28;20466;-76
2024/03/04 09:06:27;;;;;;;84.70;37.90;;;10.10;100.00;;;;;;5021734;28;20057;-76
2024/03/04 09:08:53;;;;;;;78.95;37.67;;;10.00;100.00;;;;;;5022060;28;20451;-75
2024/03/04 09:11:20;;;;;;;82.88;38.97;;;10.10;100.00;;;;;;5016682;28;20467;-75
2024/03/04 09:13:47;;;;;;;84.65;37.35;;;10.30;100.00;;;;;;5017185;28;20053;-75
2024/03/04 09:16:15;;;;;;;83.78;37.70;;;10.50;100.00;;;;;;5021909;28;20050;-76
2024/03/04 09:18:42;;;;;;;90.35;37.83;;;10.60;100.00;;;;;;5036350;28;20052;-75
2024/03/04 09:21:09;;;;;;;76.68;37.30;;;10.50;100.00;;;;;;5020489;28;20136;-75
2024/03/04 09:23:39;;;;;;;81.47;36.58;;;10.60;100.00;;;;;;5028002;28;20049;-75
2024/03/04 09:26:09;;;;;;;73.80;36.08;;;10.90;100.00;;;;;;5015651;28;20073;-76
2024/03/04 09:28:36;;;;;;;75.40;34.95;;;10.90;100.00;;;;;;5022578;28;20099;-75
2024/03/04 09:31:04;;;;;;;80.60;37.42;;;11.10;100.00;;;;;;5024490;28;20128;-75
2024/03/04 09:33:31;;;;;;;79.38;36.65;;;11.40;100.00;;;;;;5024065;28;20068;-75
2024/03/04 09:36:00;;;;;;;71.07;35.85;;;11.70;100.00;;;;;;5016256;28;20052;-75
2024/03/04 09:38:27;;;;;;;76.15;35.33;;;11.80;100.00;;;;;;5016052;28;20054;-75
2024/03/04 09:40:56;;;;;;;74.88;35.00;;;12.00;100.00;;;;;;5016181;28;20118;-75
2024/03/04 09:43:28;;;;;;;68.97;32.53;;;12.30;100.00;;;;;;5020137;28;20385;-75
2024/03/04 09:46:00;;;;;;;77.05;34.20;;;12.50;100.00;;;;;;5026963;28;20758;-76
2024/03/04 09:48:28;;;;;;;81.13;35.83;;;12.40;100.00;;;;;;5043921;28;20057;-77
2024/03/04 09:50:58;;;;;;;66.60;33.85;;;12.60;100.00;;;;;;5026496;28;20049;-76
2024/03/04 09:53:26;;;;;;;77.05;35.28;;;12.80;100.00;;;;;;5020314;28;20235;-75
2024/03/04 09:55:53;;;;;;;69.93;34.85;;;13.20;100.00;;;;;;5030268;28;20448;-76
2024/03/04 09:58:21;;;;;;;73.95;35.70;;;13.10;100.00;;;;;;5039364;28;20053;-76
2024/03/04 10:00:48;;;;;;;73.97;35.58;;;13.50;100.00;;;;;;5042487;28;20120;-76
2024/03/04 10:03:15;;;;;;;72.28;35.65;;;13.70;100.00;;;;;;5026910;28;20053;-76
2024/03/04 10:05:45;;;;;;;65.55;32.35;;;14.30;100.00;;;;;;5019886;28;20123;-74
2024/03/04 10:08:12;;;;;;;58.35;30.40;;;14.60;100.00;;;;;;5018141;28;20055;-74
2024/03/04 10:10:39;;;;;;;60.67;31.95;;;14.80;100.00;;;;;;5016806;28;20042;-74
2024/03/04 10:13:13;;;;;;;64.63;32.15;;;15.00;100.00;;;;;;5025526;28;20128;-74
2024/03/04 10:15:40;;;;;;;59.95;32.00;;;15.20;100.00;;;;;;5032189;28;20050;-74
2024/03/04 10:18:11;;;;;;;57.08;30.40;;;15.30;100.00;;;;;;5027095;28;20075;-74
2024/03/04 10:20:39;;;;;;;54.22;30.27;;;15.40;100.00;;;;;;5016369;28;20049;-74
2024/03/04 10:23:06;;;;;;;56.80;31.33;;;15.40;100.00;;;;;;5019719;28;20052;-74
2024/03/04 10:25:34;;;;;;;51.70;29.02;;;15.40;100.00;;;;;;5043257;28;20049;-74
2024/03/04 10:28:02;;;;;;;58.85;31.30;;;15.10;100.00;;;;;;5034190;28;20049;-74
2024/03/04 10:30:30;;;;;;;53.53;28.48;;;14.90;100.00;;;;;;5018582;28;20053;-74
2024/03/04 10:32:59;;;;;;;58.80;29.42;;;15.20;100.00;;;;;;5042524;28;20046;-74
2024/03/04 10:35:27;;;;;;;55.45;29.02;;;15.10;100.00;;;;;;5012429;28;20151;-74
2024/03/04 10:37:59;;;;;;;61.53;30.17;;;15.60;100.00;;;;;;5020881;28;20045;-74
2024/03/04 10:40:26;;;;;;;54.92;28.40;;;15.40;100.00;;;;;;5032611;28;20482;-74
2024/03/04 10:42:59;;;;;;;56.05;28.45;;;15.30;100.00;;;;;;5025920;28;20045;-76
2024/03/04 10:45:31;;;;;;;52.00;28.77;;;15.80;100.00;;;;;;5019714;28;20103;-74
2024/03/04 10:48:01;;;;;;;59.58;30.23;;;16.00;100.00;;;;;;5019398;28;20046;-73
2024/03/04 10:50:28;;;;;;;55.85;29.50;;;15.50;100.00;;;;;;5022338;28;20088;-74
2024/03/04 10:52:56;;;;;;;60.92;29.80;;;15.60;100.00;;;;;;5013367;28;20497;-74
2024/03/04 10:55:27;;;;;;;55.65;27.52;;;15.70;100.00;;;;;;5022862;28;20068;-74
2024/03/04 10:58:00;;;;;;;61.78;29.17;;;16.00;100.00;;;;;;5018726;28;20049;-74
2024/03/04 11:00:30;;;;;;;46.60;27.60;;;16.30;100.00;;;;;;5016662;28;20608;-74
2024/03/04 11:02:59;;;;;;;57.08;29.55;;;16.50;100.00;;;;;;5025519;28;20148;-74
2024/03/04 11:05:30;;;;;;;52.50;28.17;;;16.50;100.00;;;;;;5017435;28;20060;-74
2024/03/04 11:08:06;;;;;;;60.97;29.48;;;16.20;100.00;;;;;;5025445;28;20489;-74
2024/03/04 11:10:41;;;;;;;54.72;28.83;;;16.10;100.00;;;;;;5012885;28;20137;-74
2024/03/04 11:13:39;;;;;;;55.10;28.23;;;16.30;100.00;;;;;;5022313;28;20484;-74
2024/03/04 11:16:18;;;;;;;56.78;28.30;;;16.10;100.00;;;;;;5014036;28;20296;-74
2024/03/04 11:18:58;;;;;;;54.03;27.60;;;16.20;100.00;;;;;;5023867;28;20049;-74
2024/03/04 11:21:27;;;;;;;54.90;27.83;;;16.10;100.00;;;;;;5039942;28;20049;-74
2024/03/04 11:23:54;;;;;;;53.90;27.77;;;16.30;100.00;;;;;;5029122;28;20796;-74
2024/03/04 11:26:22;;;;;;;56.50;29.17;;;16.30;100.00;;;;;;5020366;28;20449;-76
2024/03/04 11:28:51;;;;;;;54.15;29.25;;;16.30;100.00;;;;;;5019886;28;20525;-74
2024/03/04 11:31:28;;;;;;;62.90;29.10;;;16.50;100.00;;;;;;5017930;28;20046;-74
2024/03/04 11:34:08;;;;;;;51.35;28.10;;;16.80;100.00;;;;;;5025112;28;20045;-74
2024/03/04 11:36:37;;;;;;;54.53;28.92;;;17.10;100.00;;;;;;5040199;28;20488;-74
2024/03/04 11:39:13;;;;;;;48.55;27.77;;;17.70;100.00;;;;;;5016416;28;20501;-74
2024/03/04 11:41:44;;;;;;;50.45;26.98;;;17.80;100.00;;;;;;5018094;28;20045;-74
2024/03/04 11:44:12;;;;;;;59.10;29.80;;;18.50;100.00;;;;;;5029973;28;20046;-74
2024/03/04 11:46:40;;;;;;;53.10;28.35;;;19.20;100.00;;;;;;5036457;28;20044;-74
2024/03/04 11:49:28;;;;;;;55.85;28.17;;;19.50;100.00;;;;;;5026151;28;20076;-74
2024/03/04 11:52:10;;;;;;;49.50;27.35;;;19.80;100.00;;;;;;5012547;28;20127;-73
2024/03/04 11:54:37;;;;;;;52.35;27.92;;;20.10;100.00;;;;;;5015276;28;20095;-74
2024/03/04 11:57:06;;;;;;;54.22;26.42;;;21.00;100.00;;;;;;5013703;28;20065;-74
2024/03/04 11:59:33;;;;;;;48.53;27.48;;;20.70;100.00;;;;;;5040370;28;20053;-74
2024/03/04 12:02:05;;;;;;;50.58;26.27;;;20.60;100.00;;;;;;5017583;28;20050;-74
2024/03/04 12:04:33;;;;;;;47.45;26.95;;;20.20;100.00;;;;;;5017966;28;20087;-74
2024/03/04 12:07:01;;;;;;;56.08;28.40;;;19.80;100.00;;;;;;5026197;28;20038;-73
2024/03/04 12:09:29;;;;;;;52.92;27.05;;;20.00;100.00;;;;;;5020305;28;20136;-74
2024/03/04 12:12:16;;;;;;;50.53;27.75;;;20.40;99.90;;;;;;5022002;28;20053;-74
2024/03/04 12:14:46;;;;;;;55.25;26.88;;;20.50;100.00;;;;;;5034545;28;20049;-74
2024/03/04 12:17:13;;;;;;;50.80;26.20;;;20.90;96.50;;;;;;5027114;28;20123;-74
2024/03/04 12:19:57;;;;;;;50.35;26.77;;;20.70;97.40;;;;;;5018222;28;20053;-74
2024/03/04 12:22:28;;;;;;;48.03;25.75;;;20.80;92.80;;;;;;5018737;28;20057;-74
2024/03/04 12:25:05;;;;;;;52.30;26.48;;;20.70;93.50;;;;;;5013967;28;20085;-74
2024/03/04 12:27:34;;;;;;;49.17;26.58;;;21.10;95.30;;;;;;5040423;28;20208;-74